createdAt,value
2023-03-04T00:00:34.116Z,3.20
2023-03-04T00:03:02.654Z,3.20
2023-03-04T00:05:31.191Z,3.20
2023-03-04T00:08:00.156Z,3.20
2023-03-04T00:10:28.262Z,3.20
2023-03-04T00:12:58.204Z,3.10
2023-03-04T00:15:26.266Z,3.10
2023-03-04T00:17:54.538Z,3.10
2023-03-04T00:20:22.610Z,3.10
2023-03-04T00:22:51.022Z,3.10
2023-03-04T00:25:19.550Z,3.10
2023-03-04T00:27:48.162Z,3.00
2023-03-04T00:30:18.391Z,2.90
2023-03-04T00:32:46.588Z,2.90
2023-03-04T00:35:14.915Z,2.90
2023-03-04T00:37:43.057Z,2.70
2023-03-04T00:40:12.350Z,2.60
2023-03-04T00:42:40.416Z,2.70
2023-03-04T00:45:09.886Z,2.70
2023-03-04T00:47:39.337Z,2.70
2023-03-04T00:50:08.378Z,2.60
2023-03-04T00:52:36.424Z,2.60
2023-03-04T00:55:05.351Z,2.60
2023-03-04T00:57:33.399Z,2.50
2023-03-04T01:00:01.590Z,2.50
2023-03-04T01:02:32.051Z,2.50
2023-03-04T01:05:01.480Z,2.50
2023-03-04T01:07:30.024Z,2.50
2023-03-04T01:09:58.112Z,2.50
2023-03-04T01:12:26.671Z,2.40
2023-03-04T01:14:54.747Z,2.40
2023-03-04T01:17:23.042Z,2.30
2023-03-04T01:19:51.188Z,2.30
2023-03-04T01:22:21.074Z,2.30
2023-03-04T01:24:49.361Z,2.30
2023-03-04T01:27:17.957Z,2.20
2023-03-04T01:29:46.047Z,2.20
2023-03-04T01:32:14.698Z,2.30
2023-03-04T01:34:43.365Z,2.30
2023-03-04T01:37:13.924Z,2.30
2023-03-04T01:39:43.445Z,2.20
2023-03-04T01:42:15.730Z,2.30
2023-03-04T01:44:44.502Z,2.30
2023-03-04T01:47:12.997Z,2.50
2023-03-04T01:49:44.283Z,2.40
2023-03-04T01:52:13.236Z,2.40
2023-03-04T01:54:43.054Z,2.40
2023-03-04T01:57:17.180Z,2.40
2023-03-04T01:59:45.755Z,2.40
2023-03-04T02:02:14.305Z,2.50
2023-03-04T02:04:43.460Z,2.50
2023-03-04T02:07:11.574Z,2.40
2023-03-04T02:09:40.088Z,2.20
2023-03-04T02:12:09.635Z,2.20
2023-03-04T02:14:39.685Z,2.20
2023-03-04T02:17:11.150Z,2.10
2023-03-04T02:19:43.477Z,2.00
2023-03-04T02:22:11.705Z,2.00
2023-03-04T02:24:42.438Z,2.00
2023-03-04T02:27:12.018Z,1.90
2023-03-04T02:29:40.898Z,1.90
2023-03-04T02:32:11.697Z,1.90
2023-03-04T02:34:41.348Z,1.90
2023-03-04T02:37:11.604Z,1.80
2023-03-04T02:39:41.630Z,1.90
2023-03-04T02:42:13.936Z,2.00
2023-03-04T02:44:46.624Z,2.10
2023-03-04T02:47:17.771Z,2.20
2023-03-04T02:49:46.266Z,2.20
2023-03-04T02:52:16.767Z,2.30
2023-03-04T02:54:45.598Z,2.40
2023-03-04T02:57:16.209Z,2.50
2023-03-04T02:59:48.043Z,2.50
2023-03-04T03:02:22.619Z,2.50
2023-03-04T03:04:50.761Z,2.50
2023-03-04T03:07:21.362Z,2.60
2023-03-04T03:09:50.576Z,2.30
2023-03-04T03:12:21.340Z,2.60
2023-03-04T03:14:50.508Z,2.70
2023-03-04T03:17:21.200Z,2.70
2023-03-04T03:19:49.791Z,2.80
2023-03-04T03:22:18.761Z,2.80
2023-03-04T03:24:47.373Z,2.80
2023-03-04T03:27:15.506Z,2.80
2023-03-04T03:29:45.040Z,2.80
2023-03-04T03:32:13.725Z,2.70
2023-03-04T03:34:41.824Z,2.60
2023-03-04T03:37:10.584Z,2.50
2023-03-04T03:39:39.269Z,2.40
2023-03-04T03:42:07.382Z,2.30
2023-03-04T03:44:35.972Z,2.30
2023-03-04T03:47:05.369Z,2.20
2023-03-04T03:49:33.819Z,2.10
2023-03-04T03:52:01.891Z,2.00
2023-03-04T03:54:30.540Z,1.90
2023-03-04T03:56:58.683Z,1.90
2023-03-04T03:59:27.141Z,1.90
2023-03-04T04:01:55.390Z,1.80
2023-03-04T04:04:26.039Z,1.70
2023-03-04T04:06:54.301Z,1.60
2023-03-04T04:09:22.527Z,1.50
2023-03-04T04:11:50.749Z,1.50
2023-03-04T04:14:19.262Z,1.50
2023-03-04T04:16:47.337Z,1.40
2023-03-04T04:19:17.871Z,1.50
2023-03-04T04:21:48.073Z,1.50
2023-03-04T04:24:16.307Z,1.50
2023-03-04T04:26:45.015Z,1.50
2023-03-04T04:29:14.629Z,1.50
2023-03-04T04:31:43.375Z,1.60
2023-03-04T04:34:11.501Z,1.70
2023-03-04T04:36:40.154Z,1.70
2023-03-04T04:39:09.602Z,1.70
2023-03-04T04:41:39.202Z,1.70
2023-03-04T04:44:07.544Z,1.60
2023-03-04T04:46:36.364Z,1.50
2023-03-04T04:49:04.715Z,1.50
2023-03-04T04:51:33.614Z,1.40
2023-03-04T04:54:02.308Z,1.20
2023-03-04T04:56:31.818Z,1.20
2023-03-04T04:59:01.337Z,1.20
2023-03-04T05:01:29.567Z,1.10
2023-03-04T05:03:58.134Z,1.10
2023-03-04T05:06:26.366Z,1.00
2023-03-04T05:08:54.778Z,0.90
2023-03-04T05:11:23.032Z,0.80
2023-03-04T05:13:52.754Z,0.80
2023-03-04T05:16:20.815Z,0.80
2023-03-04T05:18:49.267Z,0.80
2023-03-04T05:21:17.374Z,0.80
2023-03-04T05:23:45.717Z,0.80
2023-03-04T05:26:14.671Z,1.00
2023-03-04T05:28:43.390Z,0.90
2023-03-04T05:31:12.890Z,0.80
2023-03-04T05:33:41.483Z,0.90
2023-03-04T05:36:10.859Z,1.00
2023-03-04T05:38:38.934Z,0.90
2023-03-04T05:41:08.181Z,0.90
2023-03-04T05:43:36.569Z,0.80
2023-03-04T05:46:06.463Z,0.70
2023-03-04T05:48:35.926Z,0.70
2023-03-04T05:51:04.445Z,0.70
2023-03-04T05:53:32.736Z,0.80
2023-03-04T05:56:01.116Z,0.80
2023-03-04T05:58:29.617Z,0.80
2023-03-04T06:01:00.756Z,0.80
2023-03-04T06:03:29.158Z,0.80
2023-03-04T06:05:58.610Z,0.80
2023-03-04T06:08:27.823Z,0.80
2023-03-04T06:10:56.467Z,0.70
2023-03-04T06:13:25.291Z,0.70
2023-03-04T06:15:55.365Z,0.80
2023-03-04T06:18:23.897Z,0.80
2023-03-04T06:20:51.962Z,0.70
2023-03-04T06:23:21.948Z,0.60
2023-03-04T06:25:52.335Z,0.60
2023-03-04T06:28:20.974Z,0.60
2023-03-04T06:30:49.099Z,0.60
2023-03-04T06:33:17.552Z,0.60
2023-03-04T06:35:46.035Z,0.70
2023-03-04T06:38:14.120Z,0.80
2023-03-04T06:40:44.571Z,0.80
2023-03-04T06:43:12.653Z,0.80
2023-03-04T06:45:41.750Z,0.80
2023-03-04T06:48:09.860Z,0.90
2023-03-04T06:50:38.649Z,0.80
2023-03-04T06:53:06.792Z,0.90
2023-03-04T06:55:35.282Z,0.90
2023-03-04T06:58:04.702Z,0.90
2023-03-04T07:00:33.267Z,1.00
2023-03-04T07:03:01.870Z,1.20
2023-03-04T07:05:30.465Z,1.30
2023-03-04T07:07:58.528Z,1.40
2023-03-04T07:10:26.613Z,1.50
2023-03-04T07:12:54.682Z,1.70
2023-03-04T07:15:24.568Z,1.90
2023-03-04T07:17:52.711Z,2.00
2023-03-04T07:20:21.419Z,2.10
2023-03-04T07:22:49.472Z,2.20
2023-03-04T07:25:18.008Z,2.10
2023-03-04T07:27:46.618Z,2.30
2023-03-04T07:30:15.122Z,2.40
2023-03-04T07:32:45.111Z,2.40
2023-03-04T07:35:13.195Z,2.50
2023-03-04T07:37:41.589Z,2.60
2023-03-04T07:40:10.642Z,2.60
2023-03-04T07:42:39.124Z,2.60
2023-03-04T07:45:12.482Z,2.70
2023-03-04T07:47:41.962Z,2.80
2023-03-04T07:50:12.668Z,2.90
2023-03-04T07:52:41.909Z,3.00
2023-03-04T07:55:10.673Z,3.10
2023-03-04T07:57:40.096Z,3.10
2023-03-04T08:00:09.121Z,3.20
2023-03-04T08:02:40.879Z,3.20
2023-03-04T08:05:09.424Z,3.30
2023-03-04T08:07:39.135Z,3.30
2023-03-04T08:10:08.417Z,3.40
2023-03-04T08:12:36.538Z,3.40
2023-03-04T08:15:05.418Z,3.50
2023-03-04T08:17:33.428Z,3.70
2023-03-04T08:20:01.974Z,3.80
2023-03-04T08:22:30.847Z,3.80
2023-03-04T08:25:00.831Z,3.80
2023-03-04T08:27:28.906Z,3.90
2023-03-04T08:29:57.542Z,3.90
2023-03-04T08:32:25.706Z,4.00
2023-03-04T08:34:56.524Z,4.00
2023-03-04T08:37:24.769Z,4.10
2023-03-04T08:39:52.767Z,4.10
2023-03-04T08:42:22.819Z,4.20
2023-03-04T08:44:51.002Z,4.30
2023-03-04T08:47:19.378Z,4.40
2023-03-04T08:49:47.590Z,4.50
2023-03-04T08:52:15.751Z,4.60
2023-03-04T08:54:43.887Z,4.70
2023-03-04T08:57:11.913Z,4.80
2023-03-04T08:59:41.363Z,4.90
2023-03-04T09:02:10.464Z,4.90
2023-03-04T09:04:38.772Z,4.90
2023-03-04T09:07:07.543Z,5.00
2023-03-04T09:09:35.909Z,5.10
2023-03-04T09:12:04.044Z,5.20
2023-03-04T09:14:32.731Z,5.30
2023-03-04T09:17:02.504Z,5.40
2023-03-04T09:19:30.581Z,5.50
2023-03-04T09:21:59.258Z,5.60
2023-03-04T09:24:27.438Z,5.80
2023-03-04T09:26:55.494Z,6.00
2023-03-04T09:29:23.700Z,6.10
2023-03-04T09:31:51.923Z,6.20
2023-03-04T09:34:21.359Z,6.40
2023-03-04T09:36:49.449Z,6.40
2023-03-04T09:39:17.611Z,6.60
2023-03-04T09:41:46.853Z,6.70
2023-03-04T09:44:17.208Z,6.90
2023-03-04T09:46:46.408Z,7.10
2023-03-04T09:49:14.968Z,7.20
2023-03-04T09:51:48.338Z,7.30
2023-03-04T09:54:21.876Z,7.50
2023-03-04T09:56:52.275Z,7.60
2023-03-04T09:59:24.546Z,7.60
2023-03-04T10:01:54.823Z,7.70
2023-03-04T10:04:30.224Z,7.70
2023-03-04T10:07:00.096Z,7.70
2023-03-04T10:09:29.791Z,7.80
2023-03-04T10:12:01.627Z,7.90
2023-03-04T10:14:34.132Z,7.90
2023-03-04T10:17:06.826Z,8.00
2023-03-04T10:19:40.805Z,8.10
2023-03-04T10:22:17.416Z,8.10
2023-03-04T10:24:47.584Z,8.20
2023-03-04T10:27:18.026Z,8.40
2023-03-04T10:29:49.320Z,8.70
2023-03-04T10:32:18.703Z,9.10
2023-03-04T10:34:47.056Z,9.70
2023-03-04T10:37:16.545Z,10.40
2023-03-04T10:39:45.753Z,11.40
2023-03-04T10:42:25.707Z,12.40
2023-03-04T10:44:55.526Z,13.10
2023-03-04T10:47:28.049Z,13.50
2023-03-04T10:49:58.051Z,13.60
2023-03-04T10:52:32.305Z,13.20
2023-03-04T10:55:03.175Z,13.10
2023-03-04T10:57:35.293Z,13.30
2023-03-04T11:00:23.501Z,13.40
2023-03-04T11:02:54.373Z,12.60
2023-03-04T11:05:24.086Z,12.10
2023-03-04T11:07:57.704Z,12.10
2023-03-04T11:10:27.269Z,12.30
2023-03-04T11:13:00.529Z,12.60
2023-03-04T11:15:31.055Z,12.80
2023-03-04T11:18:02.114Z,12.70
2023-03-04T11:20:32.244Z,12.70
2023-03-04T11:23:04.593Z,12.80
2023-03-04T11:25:34.679Z,12.80
2023-03-04T11:28:06.030Z,12.70
2023-03-04T11:30:37.781Z,12.50
2023-03-04T11:33:13.480Z,12.60
2023-03-04T11:35:45.778Z,12.60
2023-03-04T11:38:18.528Z,12.50
2023-03-04T11:40:48.604Z,12.40
2023-03-04T11:43:22.899Z,12.40
2023-03-04T11:46:01.941Z,12.50
2023-03-04T11:48:37.537Z,12.50
2023-03-04T11:51:09.027Z,12.60
2023-03-04T11:53:41.860Z,12.70
2023-03-04T11:56:14.229Z,12.80
2023-03-04T11:58:59.796Z,12.60
2023-03-04T12:01:29.219Z,12.50
2023-03-04T12:04:19.001Z,12.40
2023-03-04T12:06:53.279Z,12.40
2023-03-04T12:09:32.514Z,12.60
2023-03-04T12:12:04.319Z,12.70
2023-03-04T12:14:36.189Z,12.80
2023-03-04T12:17:10.080Z,12.90
2023-03-04T12:19:45.545Z,13.20
2023-03-04T12:22:18.155Z,13.30
2023-03-04T12:25:05.233Z,13.40
2023-03-04T12:27:37.211Z,13.60
2023-03-04T12:30:07.734Z,13.70
2023-03-04T12:32:41.540Z,13.80
2023-03-04T12:35:30.133Z,13.90
2023-03-04T12:38:08.797Z,14.00
2023-03-04T12:40:43.518Z,14.00
2023-03-04T12:43:23.577Z,14.00
2023-03-04T12:45:58.983Z,14.10
2023-03-04T12:48:31.305Z,14.30
2023-03-04T12:51:18.632Z,14.50
2023-03-04T12:53:50.852Z,14.80
2023-03-04T12:56:24.585Z,14.90
2023-03-04T12:58:53.249Z,14.80
2023-03-04T13:01:24.873Z,15.10
2023-03-04T13:03:56.344Z,15.60
2023-03-04T13:06:30.146Z,16.10
2023-03-04T13:09:01.142Z,16.70
2023-03-04T13:11:49.681Z,17.30
2023-03-04T13:14:26.469Z,18.00
2023-03-04T13:16:55.883Z,18.40
2023-03-04T13:19:42.892Z,18.80
2023-03-04T13:22:30.506Z,19.30
2023-03-04T13:24:59.422Z,19.60
2023-03-04T13:27:46.155Z,20.40
2023-03-04T13:30:29.154Z,21.20
2023-03-04T13:33:00.209Z,21.90
2023-03-04T13:35:47.623Z,23.00
2023-03-04T13:38:22.211Z,23.70
2023-03-04T13:41:05.205Z,24.10
2023-03-04T13:43:40.023Z,23.90
2023-03-04T13:46:27.523Z,24.30
2023-03-04T13:49:03.866Z,24.30
2023-03-04T13:51:33.713Z,24.70
2023-03-04T13:54:14.348Z,25.30
2023-03-04T13:56:46.396Z,25.60
2023-03-04T13:59:23.574Z,25.70
2023-03-04T14:01:59.961Z,25.80
2023-03-04T14:04:31.776Z,25.00
2023-03-04T14:07:01.080Z,24.70
2023-03-04T14:09:30.595Z,24.60
2023-03-04T14:12:02.566Z,24.90
2023-03-04T14:14:31.998Z,25.30
2023-03-04T14:17:01.175Z,25.70
2023-03-04T14:19:34.534Z,25.90
2023-03-04T14:22:02.866Z,26.20
2023-03-04T14:24:31.233Z,26.10
2023-03-04T14:27:11.463Z,25.60
2023-03-04T14:29:39.560Z,24.80
2023-03-04T14:32:10.106Z,24.00
2023-03-04T14:34:39.859Z,23.40
2023-03-04T14:37:20.565Z,23.10
2023-03-04T14:39:50.828Z,22.50
2023-03-04T14:42:21.224Z,22.10
2023-03-04T14:44:50.121Z,21.60
2023-03-04T14:47:20.980Z,20.90
2023-03-04T14:49:51.183Z,20.10
2023-03-04T14:52:32.947Z,19.20
2023-03-04T14:55:03.670Z,18.40
2023-03-04T14:57:34.342Z,17.70
2023-03-04T15:00:16.101Z,16.80
2023-03-04T15:02:44.996Z,15.80
2023-03-04T15:05:25.389Z,14.90
2023-03-04T15:07:55.396Z,14.30
2023-03-04T15:10:25.715Z,13.80
2023-03-04T15:12:54.957Z,13.30
2023-03-04T15:15:34.387Z,12.90
2023-03-04T15:18:02.937Z,12.40
2023-03-04T15:20:33.129Z,12.10
2023-03-04T15:23:03.033Z,11.80
2023-03-04T15:25:31.763Z,11.40
2023-03-04T15:28:02.600Z,11.10
2023-03-04T15:30:32.719Z,10.80
2023-03-04T15:33:05.821Z,10.50
2023-03-04T15:35:35.685Z,10.20
2023-03-04T15:38:05.839Z,10.00
2023-03-04T15:40:35.175Z,9.90
2023-03-04T15:43:05.555Z,9.60
2023-03-04T15:45:36.214Z,9.40
2023-03-04T15:48:08.076Z,9.30
2023-03-04T15:50:38.807Z,9.20
2023-03-04T15:53:08.507Z,9.00
2023-03-04T15:55:36.945Z,9.00
2023-03-04T15:58:05.178Z,8.90
2023-03-04T16:00:34.941Z,8.80
2023-03-04T16:03:03.079Z,8.70
2023-03-04T16:05:40.148Z,8.60
2023-03-04T16:08:10.785Z,8.50
2023-03-04T16:10:39.739Z,8.30
2023-03-04T16:13:13.674Z,8.20
2023-03-04T16:15:43.512Z,8.10
2023-03-04T16:18:12.066Z,8.00
2023-03-04T16:20:42.630Z,7.90
2023-03-04T16:23:14.479Z,7.80
2023-03-04T16:25:44.143Z,7.70
2023-03-04T16:28:12.592Z,7.60
2023-03-04T16:30:41.300Z,7.60
2023-03-04T16:33:11.626Z,7.60
2023-03-04T16:35:40.223Z,7.50
2023-03-04T16:38:20.298Z,7.40
2023-03-04T16:40:51.233Z,7.40
2023-03-04T16:43:19.914Z,7.30
2023-03-04T16:45:48.491Z,7.30
2023-03-04T16:48:17.073Z,7.30
2023-03-04T16:50:45.537Z,7.20
2023-03-04T16:53:22.816Z,7.20
2023-03-04T16:55:51.081Z,7.10
2023-03-04T16:58:19.174Z,6.90
2023-03-04T17:00:47.333Z,7.00
2023-03-04T17:03:16.076Z,7.00
2023-03-04T17:05:44.311Z,6.90
2023-03-04T17:08:12.864Z,6.80
2023-03-04T17:10:42.301Z,6.70
2023-03-04T17:13:10.658Z,6.70
2023-03-04T17:15:38.861Z,6.60
2023-03-04T17:18:07.385Z,6.60
2023-03-04T17:20:35.589Z,6.50
2023-03-04T17:23:04.054Z,6.50
2023-03-04T17:25:32.165Z,6.40
2023-03-04T17:28:01.980Z,6.40
2023-03-04T17:30:30.045Z,6.50
2023-03-04T17:33:01.033Z,6.40
2023-03-04T17:35:31.362Z,6.30
2023-03-04T17:38:03.443Z,6.10
2023-03-04T17:40:31.552Z,6.10
2023-03-04T17:43:01.296Z,6.10
2023-03-04T17:45:31.858Z,6.10
2023-03-04T17:48:00.079Z,6.10
2023-03-04T17:50:28.540Z,6.10
2023-03-04T17:52:56.741Z,6.00
2023-03-04T17:55:25.033Z,5.90
2023-03-04T17:57:55.449Z,5.90
2023-03-04T18:00:25.791Z,5.80
2023-03-04T18:02:53.918Z,5.90
2023-03-04T18:05:22.326Z,5.90
2023-03-04T18:07:50.347Z,5.80
2023-03-04T18:10:18.392Z,5.80
2023-03-04T18:12:47.552Z,5.80
2023-03-04T18:15:15.884Z,5.70
2023-03-04T18:17:46.399Z,5.60
2023-03-04T18:20:15.036Z,5.50
2023-03-04T18:22:43.326Z,4.50
2023-03-04T18:25:12.608Z,5.40
2023-03-04T18:27:42.018Z,5.40
2023-03-04T18:30:11.525Z,5.40
2023-03-04T18:32:51.288Z,5.20
2023-03-04T18:35:22.112Z,5.10
2023-03-04T18:37:50.956Z,5.10
2023-03-04T18:40:19.237Z,5.10
2023-03-04T18:42:48.200Z,5.00
2023-03-04T18:45:16.910Z,4.90
2023-03-04T18:47:48.232Z,5.00
2023-03-04T18:50:16.476Z,4.90
2023-03-04T18:52:46.327Z,4.90
2023-03-04T18:55:14.565Z,4.90
2023-03-04T18:57:45.989Z,4.90
2023-03-04T19:00:15.606Z,4.90
2023-03-04T19:02:46.767Z,4.90
2023-03-04T19:05:16.775Z,4.80
2023-03-04T19:07:46.206Z,4.60
2023-03-04T19:10:14.374Z,4.60
2023-03-04T19:12:42.652Z,4.60
2023-03-04T19:15:11.330Z,4.60
2023-03-04T19:17:39.925Z,4.60
2023-03-04T19:20:09.536Z,4.60
2023-03-04T19:22:38.127Z,4.60
2023-03-04T19:25:10.166Z,4.60
2023-03-04T19:27:38.621Z,3.90
2023-03-04T19:30:07.621Z,4.50
2023-03-04T19:32:36.227Z,4.60
2023-03-04T19:35:04.372Z,4.60
2023-03-04T19:37:33.073Z,4.50
2023-03-04T19:40:01.309Z,4.50
2023-03-04T19:42:31.819Z,4.40
2023-03-04T19:45:01.613Z,4.20
2023-03-04T19:47:31.416Z,4.20
2023-03-04T19:49:59.530Z,4.20
2023-03-04T19:52:27.808Z,4.10
2023-03-04T19:54:55.927Z,4.00
2023-03-04T19:57:24.191Z,3.90
2023-03-04T19:59:54.184Z,3.90
2023-03-04T20:02:22.647Z,4.00
2023-03-04T20:04:50.668Z,4.00
2023-03-04T20:07:19.388Z,3.90
2023-03-04T20:09:47.593Z,3.70
2023-03-04T20:12:16.083Z,3.60
2023-03-04T20:14:44.429Z,3.60
2023-03-04T20:17:20.315Z,3.50
2023-03-04T20:19:48.944Z,3.50
2023-03-04T20:22:17.370Z,3.40
2023-03-04T20:24:45.891Z,3.40
2023-03-04T20:27:15.205Z,3.30
2023-03-04T20:29:45.509Z,3.20
2023-03-04T20:32:13.929Z,3.20
2023-03-04T20:34:43.975Z,3.20
2023-03-04T20:37:12.252Z,3.20
2023-03-04T20:39:40.499Z,3.10
2023-03-04T20:42:09.168Z,3.10
2023-03-04T20:44:38.257Z,3.00
2023-03-04T20:47:06.558Z,3.00
2023-03-04T20:49:34.878Z,2.90
2023-03-04T20:52:06.394Z,2.90
2023-03-04T20:54:35.642Z,2.80
2023-03-04T20:57:05.450Z,2.80
2023-03-04T20:59:34.167Z,2.80
2023-03-04T21:02:02.426Z,2.80
2023-03-04T21:04:35.947Z,2.80
2023-03-04T21:07:05.399Z,2.70
2023-03-04T21:09:52.192Z,2.70
2023-03-04T21:12:20.687Z,2.70
2023-03-04T21:14:49.733Z,2.70
2023-03-04T21:17:17.897Z,2.70
2023-03-04T21:19:46.021Z,2.70
2023-03-04T21:22:16.219Z,2.60
2023-03-04T21:24:46.413Z,2.60
2023-03-04T21:27:18.900Z,2.50
2023-03-04T21:29:49.604Z,2.50
2023-03-04T21:32:24.626Z,2.40
2023-03-04T21:34:54.210Z,2.40
2023-03-04T21:37:24.788Z,2.30
2023-03-04T21:39:54.901Z,2.20
2023-03-04T21:42:23.498Z,2.20
2023-03-04T21:44:52.133Z,2.10
2023-03-04T21:47:21.097Z,2.10
2023-03-04T21:49:49.162Z,2.10
2023-03-04T21:52:18.172Z,2.10
2023-03-04T21:54:47.783Z,2.10
2023-03-04T21:57:17.002Z,2.10
2023-03-04T21:59:45.086Z,2.00
2023-03-04T22:02:15.843Z,2.00
2023-03-04T22:04:44.100Z,2.00
2023-03-04T22:07:12.437Z,1.90
2023-03-04T22:09:40.618Z,2.00
2023-03-04T22:12:10.428Z,2.10
2023-03-04T22:14:39.715Z,2.10
2023-03-04T22:17:08.896Z,2.10
2023-03-04T22:19:37.073Z,2.10
2023-03-04T22:22:06.451Z,2.00
2023-03-04T22:24:34.554Z,2.00
2023-03-04T22:27:04.256Z,2.00
2023-03-04T22:29:33.880Z,2.00
2023-03-04T22:32:02.412Z,2.00
2023-03-04T22:34:30.546Z,2.00
2023-03-04T22:36:59.061Z,2.00
2023-03-04T22:39:27.128Z,2.00
2023-03-04T22:41:55.378Z,1.90
2023-03-04T22:44:23.702Z,2.00
2023-03-04T22:46:54.334Z,2.00
2023-03-04T22:49:22.890Z,2.10
2023-03-04T22:51:51.251Z,2.10
2023-03-04T22:54:20.219Z,2.10
2023-03-04T22:56:48.291Z,2.20
2023-03-04T22:59:17.467Z,2.20
2023-03-04T23:01:45.599Z,2.20
2023-03-04T23:04:15.337Z,2.20
2023-03-04T23:06:43.384Z,2.30
2023-03-04T23:09:11.989Z,2.30
2023-03-04T23:11:40.319Z,2.30
2023-03-04T23:14:11.349Z,2.30
2023-03-04T23:16:43.089Z,2.30
2023-03-04T23:19:12.824Z,2.30
2023-03-04T23:21:42.740Z,2.30
2023-03-04T23:24:12.030Z,2.30
2023-03-04T23:26:40.904Z,2.30
2023-03-04T23:29:10.335Z,2.30
2023-03-04T23:31:38.499Z,2.30
2023-03-04T23:34:07.376Z,2.30
2023-03-04T23:36:36.474Z,2.30
2023-03-04T23:39:06.935Z,2.40
2023-03-04T23:41:36.499Z,2.30
2023-03-04T23:44:04.597Z,2.30
2023-03-04T23:46:32.956Z,2.30
2023-03-04T23:49:01.010Z,2.30
2023-03-04T23:51:30.040Z,2.30
2023-03-04T23:54:00.257Z,2.30
2023-03-04T23:56:31.384Z,2.30
2023-03-04T23:58:59.896Z,2.20
